TFM - Tactical Decision Aid (Experimental) INFO Settings
ID: Runway Winds: CIG/VIS Threshold: METAR Board: Map:

Kclt - Charlotte-Douglas Intl

Updated at: 0210 UTC 05 May 2015
Latest TAF at: 2320 UTC 04 May 2015

TAF Board

Time0152Z05/03Z05/04Z05/05Z05/06Z05/07Z05/08Z05/09Z05/10Z05/11Z05/12Z05/13Z05/14Z05/15Z
TypeOBSPRVLPRVLPRVLPRVLPRVLPRVLPRVLPRVLPRVLPRVLPRVLPRVLPRVL
VIS10>6>6>6>6>6>6>6>6>6>6>6>6>6
CIG----------------------------
CoverCLRSCTSCTSCTSCTSCTSCTSCTSCTSCTSCTSCTSCTSCT
FltCatVFRVFRVFRVFRVFRVFRVFRVFRVFRVFRVFRVFRVFRVFR
WX----------------------------
WDir170220220220220220220220220220220220220210
WSpd46666666666665
WGst----------------------------
TAF
KCLT 042320Z 0500/0524 22006KT P6SM FEW070 SCT130
  FM051500 21005KT P6SM SCT060
  FM051900 19006KT P6SM SCT060


METAR
KCLT 050152Z 17004KT 10SM CLR 19/10 A3029 RMK AO2 SLP249 T01940100 $
KCLT 050052Z 18004KT 10SM FEW070 21/09 A3027 RMK AO2 SLP245 T02110094 $

TAF/METAR Board Legend

Potential Impact
  None Marginal Slight Moderate High
Visibility (sm) > ≤X≤ <
Ceiling (100 ft) > ≤X≤ <
Wind Speed (kt) <10 10≤X<20 20≤X<30 ≥30
Wind Gust (kt) <15 15≤X<25 25≤X<35 ≥35
Weather No Wx Reported VCTS -TS,-FZRA TS,FZRA +TS,+FZRA